sensor_id;sensor_type;location;lat;lon;timestamp;P1;durP1;ratioP1;P2;durP2;ratioP2
12906;SDS011;6521;50.498;8.474;2024-03-08T00:00:58;29.67;;;17.17;;
12906;SDS011;6521;50.498;8.474;2024-03-08T00:03:29;25.83;;;17.17;;
12906;SDS011;6521;50.498;8.474;2024-03-08T00:06:00;25.63;;;16.83;;
12906;SDS011;6521;50.498;8.474;2024-03-08T00:08:32;23.97;;;17.70;;
12906;SDS011;6521;50.498;8.474;2024-03-08T00:11:05;24.83;;;17.33;;
12906;SDS011;6521;50.498;8.474;2024-03-08T00:13:35;23.23;;;15.87;;
12906;SDS011;6521;50.498;8.474;2024-03-08T00:16:07;26.93;;;16.93;;
12906;SDS011;6521;50.498;8.474;2024-03-08T00:18:39;22.10;;;15.63;;
12906;SDS011;6521;50.498;8.474;2024-03-08T00:21:12;25.13;;;16.87;;
12906;SDS011;6521;50.498;8.474;2024-03-08T00:23:43;24.30;;;16.17;;
12906;SDS011;6521;50.498;8.474;2024-03-08T00:26:15;24.10;;;16.60;;
12906;SDS011;6521;50.498;8.474;2024-03-08T00:28:48;24.63;;;16.93;;
12906;SDS011;6521;50.498;8.474;2024-03-08T00:31:19;22.67;;;15.33;;
12906;SDS011;6521;50.498;8.474;2024-03-08T00:33:50;24.40;;;17.23;;
12906;SDS011;6521;50.498;8.474;2024-03-08T00:36:23;22.90;;;16.27;;
12906;SDS011;6521;50.498;8.474;2024-03-08T00:38:56;26.27;;;17.20;;
12906;SDS011;6521;50.498;8.474;2024-03-08T00:41:28;26.97;;;17.07;;
12906;SDS011;6521;50.498;8.474;2024-03-08T00:43:58;26.67;;;17.53;;
12906;SDS011;6521;50.498;8.474;2024-03-08T00:46:31;22.93;;;16.73;;
12906;SDS011;6521;50.498;8.474;2024-03-08T00:49:02;24.13;;;17.13;;
12906;SDS011;6521;50.498;8.474;2024-03-08T00:51:32;23.47;;;16.77;;
12906;SDS011;6521;50.498;8.474;2024-03-08T00:54:03;26.03;;;17.50;;
12906;SDS011;6521;50.498;8.474;2024-03-08T00:56:36;27.17;;;17.17;;
12906;SDS011;6521;50.498;8.474;2024-03-08T00:59:10;25.03;;;17.77;;
12906;SDS011;6521;50.498;8.474;2024-03-08T01:01:40;23.63;;;17.13;;
12906;SDS011;6521;50.498;8.474;2024-03-08T01:04:11;28.57;;;19.50;;
12906;SDS011;6521;50.498;8.474;2024-03-08T01:06:42;29.17;;;19.30;;
12906;SDS011;6521;50.498;8.474;2024-03-08T01:09:17;27.77;;;18.33;;
12906;SDS011;6521;50.498;8.474;2024-03-08T01:11:48;25.83;;;18.10;;
12906;SDS011;6521;50.498;8.474;2024-03-08T01:14:21;25.83;;;17.23;;
12906;SDS011;6521;50.498;8.474;2024-03-08T01:16:59;27.50;;;17.47;;
12906;SDS011;6521;50.498;8.474;2024-03-08T01:19:30;25.30;;;18.80;;
12906;SDS011;6521;50.498;8.474;2024-03-08T01:22:03;25.33;;;17.57;;
12906;SDS011;6521;50.498;8.474;2024-03-08T01:24:34;28.00;;;18.70;;
12906;SDS011;6521;50.498;8.474;2024-03-08T01:27:06;25.97;;;18.73;;
12906;SDS011;6521;50.498;8.474;2024-03-08T01:29:39;28.93;;;18.20;;
12906;SDS011;6521;50.498;8.474;2024-03-08T01:32:10;28.83;;;17.80;;
12906;SDS011;6521;50.498;8.474;2024-03-08T01:34:41;28.80;;;17.63;;
12906;SDS011;6521;50.498;8.474;2024-03-08T01:37:12;25.70;;;17.03;;
12906;SDS011;6521;50.498;8.474;2024-03-08T01:39:45;26.87;;;17.67;;
12906;SDS011;6521;50.498;8.474;2024-03-08T01:42:15;29.30;;;18.93;;
12906;SDS011;6521;50.498;8.474;2024-03-08T01:44:56;28.47;;;18.93;;
12906;SDS011;6521;50.498;8.474;2024-03-08T01:47:28;25.93;;;17.47;;
12906;SDS011;6521;50.498;8.474;2024-03-08T01:50:00;26.17;;;16.50;;
12906;SDS011;6521;50.498;8.474;2024-03-08T01:52:34;28.73;;;18.87;;
12906;SDS011;6521;50.498;8.474;2024-03-08T01:55:07;29.43;;;17.97;;
12906;SDS011;6521;50.498;8.474;2024-03-08T01:57:39;30.13;;;18.80;;
12906;SDS011;6521;50.498;8.474;2024-03-08T02:00:10;27.60;;;18.80;;
12906;SDS011;6521;50.498;8.474;2024-03-08T02:02:41;26.90;;;18.20;;
12906;SDS011;6521;50.498;8.474;2024-03-08T02:05:14;29.73;;;19.30;;
12906;SDS011;6521;50.498;8.474;2024-03-08T02:07:46;26.63;;;18.43;;
12906;SDS011;6521;50.498;8.474;2024-03-08T02:10:20;25.60;;;17.87;;
12906;SDS011;6521;50.498;8.474;2024-03-08T02:12:52;26.87;;;18.83;;
12906;SDS011;6521;50.498;8.474;2024-03-08T02:15:25;24.73;;;17.57;;
12906;SDS011;6521;50.498;8.474;2024-03-08T02:17:56;28.80;;;19.67;;
12906;SDS011;6521;50.498;8.474;2024-03-08T02:20:28;30.73;;;19.53;;
12906;SDS011;6521;50.498;8.474;2024-03-08T02:22:59;29.40;;;18.90;;
12906;SDS011;6521;50.498;8.474;2024-03-08T02:25:30;26.40;;;18.17;;
12906;SDS011;6521;50.498;8.474;2024-03-08T02:28:02;28.07;;;19.30;;
12906;SDS011;6521;50.498;8.474;2024-03-08T02:30:34;30.90;;;19.77;;
12906;SDS011;6521;50.498;8.474;2024-03-08T02:33:08;35.60;;;21.10;;
12906;SDS011;6521;50.498;8.474;2024-03-08T02:35:43;34.03;;;21.37;;
12906;SDS011;6521;50.498;8.474;2024-03-08T02:38:18;32.30;;;20.93;;
12906;SDS011;6521;50.498;8.474;2024-03-08T02:40:51;33.17;;;20.70;;
12906;SDS011;6521;50.498;8.474;2024-03-08T02:43:23;34.87;;;20.00;;
12906;SDS011;6521;50.498;8.474;2024-03-08T02:45:54;32.20;;;20.77;;
12906;SDS011;6521;50.498;8.474;2024-03-08T02:48:28;32.47;;;21.97;;
12906;SDS011;6521;50.498;8.474;2024-03-08T02:51:00;32.80;;;21.77;;
12906;SDS011;6521;50.498;8.474;2024-03-08T02:53:36;33.37;;;22.00;;
12906;SDS011;6521;50.498;8.474;2024-03-08T02:56:08;30.03;;;20.27;;
12906;SDS011;6521;50.498;8.474;2024-03-08T02:58:43;29.57;;;20.53;;
12906;SDS011;6521;50.498;8.474;2024-03-08T03:01:19;30.83;;;20.07;;
12906;SDS011;6521;50.498;8.474;2024-03-08T03:03:52;33.87;;;20.60;;
12906;SDS011;6521;50.498;8.474;2024-03-08T03:06:25;30.47;;;19.67;;
12906;SDS011;6521;50.498;8.474;2024-03-08T03:08:56;31.30;;;19.20;;
12906;SDS011;6521;50.498;8.474;2024-03-08T03:11:27;30.17;;;19.10;;
12906;SDS011;6521;50.498;8.474;2024-03-08T03:13:58;27.90;;;19.17;;
12906;SDS011;6521;50.498;8.474;2024-03-08T03:16:31;30.90;;;19.73;;
12906;SDS011;6521;50.498;8.474;2024-03-08T03:19:05;31.60;;;19.23;;
12906;SDS011;6521;50.498;8.474;2024-03-08T03:21:36;32.93;;;20.53;;
12906;SDS011;6521;50.498;8.474;2024-03-08T03:24:09;30.00;;;19.93;;
12906;SDS011;6521;50.498;8.474;2024-03-08T03:26:43;28.47;;;19.63;;
12906;SDS011;6521;50.498;8.474;2024-03-08T03:29:14;30.87;;;21.10;;
12906;SDS011;6521;50.498;8.474;2024-03-08T03:31:48;29.40;;;18.70;;
12906;SDS011;6521;50.498;8.474;2024-03-08T03:34:18;30.80;;;20.10;;
12906;SDS011;6521;50.498;8.474;2024-03-08T03:36:51;32.93;;;21.10;;
12906;SDS011;6521;50.498;8.474;2024-03-08T03:39:26;33.63;;;20.00;;
12906;SDS011;6521;50.498;8.474;2024-03-08T03:42:00;34.20;;;21.33;;
12906;SDS011;6521;50.498;8.474;2024-03-08T03:44:36;29.90;;;19.90;;
12906;SDS011;6521;50.498;8.474;2024-03-08T03:47:07;34.57;;;21.07;;
12906;SDS011;6521;50.498;8.474;2024-03-08T03:49:38;32.30;;;20.33;;
12906;SDS011;6521;50.498;8.474;2024-03-08T03:52:11;33.33;;;22.03;;
12906;SDS011;6521;50.498;8.474;2024-03-08T03:54:41;36.80;;;22.33;;
12906;SDS011;6521;50.498;8.474;2024-03-08T03:57:14;32.93;;;21.37;;
12906;SDS011;6521;50.498;8.474;2024-03-08T03:59:45;32.77;;;21.33;;
12906;SDS011;6521;50.498;8.474;2024-03-08T04:02:20;31.87;;;20.73;;
12906;SDS011;6521;50.498;8.474;2024-03-08T04:04:51;35.40;;;20.73;;
12906;SDS011;6521;50.498;8.474;2024-03-08T04:07:22;30.70;;;20.40;;
12906;SDS011;6521;50.498;8.474;2024-03-08T04:09:53;30.23;;;20.47;;
12906;SDS011;6521;50.498;8.474;2024-03-08T04:12:23;34.13;;;21.37;;
12906;SDS011;6521;50.498;8.474;2024-03-08T04:14:54;36.03;;;22.67;;
12906;SDS011;6521;50.498;8.474;2024-03-08T04:17:25;33.83;;;21.93;;
12906;SDS011;6521;50.498;8.474;2024-03-08T04:19:56;33.17;;;22.97;;
12906;SDS011;6521;50.498;8.474;2024-03-08T04:22:27;31.73;;;21.40;;
12906;SDS011;6521;50.498;8.474;2024-03-08T04:24:59;36.17;;;22.33;;
12906;SDS011;6521;50.498;8.474;2024-03-08T04:27:30;37.50;;;22.23;;
12906;SDS011;6521;50.498;8.474;2024-03-08T04:30:01;31.00;;;21.57;;
12906;SDS011;6521;50.498;8.474;2024-03-08T04:32:32;33.50;;;22.23;;
12906;SDS011;6521;50.498;8.474;2024-03-08T04:35:02;36.63;;;23.03;;
12906;SDS011;6521;50.498;8.474;2024-03-08T04:37:35;35.03;;;22.00;;
12906;SDS011;6521;50.498;8.474;2024-03-08T04:40:06;37.13;;;22.67;;
12906;SDS011;6521;50.498;8.474;2024-03-08T04:42:37;39.83;;;23.13;;
12906;SDS011;6521;50.498;8.474;2024-03-08T04:45:12;33.17;;;21.33;;
12906;SDS011;6521;50.498;8.474;2024-03-08T04:47:42;33.77;;;21.97;;
12906;SDS011;6521;50.498;8.474;2024-03-08T04:50:13;34.73;;;22.70;;
12906;SDS011;6521;50.498;8.474;2024-03-08T04:52:45;37.30;;;22.97;;
12906;SDS011;6521;50.498;8.474;2024-03-08T04:55:17;36.57;;;23.27;;
12906;SDS011;6521;50.498;8.474;2024-03-08T04:57:51;36.20;;;22.50;;
12906;SDS011;6521;50.498;8.474;2024-03-08T05:00:22;33.37;;;21.67;;
12906;SDS011;6521;50.498;8.474;2024-03-08T05:02:53;33.03;;;22.93;;
12906;SDS011;6521;50.498;8.474;2024-03-08T05:05:24;34.73;;;21.93;;
12906;SDS011;6521;50.498;8.474;2024-03-08T05:07:56;41.10;;;23.20;;
12906;SDS011;6521;50.498;8.474;2024-03-08T05:10:26;33.90;;;22.33;;
12906;SDS011;6521;50.498;8.474;2024-03-08T05:12:57;35.97;;;21.60;;
12906;SDS011;6521;50.498;8.474;2024-03-08T05:15:28;37.07;;;23.50;;
12906;SDS011;6521;50.498;8.474;2024-03-08T05:17:59;36.37;;;23.77;;
12906;SDS011;6521;50.498;8.474;2024-03-08T05:20:30;36.67;;;23.43;;
12906;SDS011;6521;50.498;8.474;2024-03-08T05:23:01;38.37;;;24.07;;
12906;SDS011;6521;50.498;8.474;2024-03-08T05:25:32;40.33;;;22.57;;
12906;SDS011;6521;50.498;8.474;2024-03-08T05:28:03;35.77;;;22.50;;
12906;SDS011;6521;50.498;8.474;2024-03-08T05:30:35;36.13;;;22.37;;
12906;SDS011;6521;50.498;8.474;2024-03-08T05:33:10;39.30;;;22.93;;
12906;SDS011;6521;50.498;8.474;2024-03-08T05:35:41;44.27;;;23.17;;
12906;SDS011;6521;50.498;8.474;2024-03-08T05:38:12;35.73;;;22.03;;
12906;SDS011;6521;50.498;8.474;2024-03-08T05:40:43;50.47;;;24.10;;
12906;SDS011;6521;50.498;8.474;2024-03-08T05:43:15;35.17;;;23.30;;
12906;SDS011;6521;50.498;8.474;2024-03-08T05:45:48;36.57;;;22.30;;
12906;SDS011;6521;50.498;8.474;2024-03-08T05:48:19;45.97;;;23.30;;
12906;SDS011;6521;50.498;8.474;2024-03-08T05:50:49;36.83;;;23.27;;
12906;SDS011;6521;50.498;8.474;2024-03-08T05:53:20;35.90;;;23.03;;
12906;SDS011;6521;50.498;8.474;2024-03-08T05:55:59;36.20;;;22.53;;
12906;SDS011;6521;50.498;8.474;2024-03-08T05:58:30;36.73;;;22.97;;
12906;SDS011;6521;50.498;8.474;2024-03-08T06:01:01;40.67;;;23.20;;
12906;SDS011;6521;50.498;8.474;2024-03-08T06:03:35;37.30;;;22.37;;
12906;SDS011;6521;50.498;8.474;2024-03-08T06:06:05;39.70;;;23.43;;
12906;SDS011;6521;50.498;8.474;2024-03-08T06:08:36;39.23;;;22.50;;
12906;SDS011;6521;50.498;8.474;2024-03-08T06:11:07;36.13;;;21.93;;
12906;SDS011;6521;50.498;8.474;2024-03-08T06:13:40;41.43;;;23.10;;
12906;SDS011;6521;50.498;8.474;2024-03-08T06:16:10;41.43;;;24.03;;
12906;SDS011;6521;50.498;8.474;2024-03-08T06:18:42;40.00;;;24.40;;
12906;SDS011;6521;50.498;8.474;2024-03-08T06:21:15;39.97;;;22.73;;
12906;SDS011;6521;50.498;8.474;2024-03-08T06:23:47;33.93;;;22.40;;
12906;SDS011;6521;50.498;8.474;2024-03-08T06:26:21;39.13;;;23.97;;
12906;SDS011;6521;50.498;8.474;2024-03-08T06:28:52;37.77;;;23.77;;
12906;SDS011;6521;50.498;8.474;2024-03-08T06:31:25;40.20;;;24.07;;
12906;SDS011;6521;50.498;8.474;2024-03-08T06:33:57;40.87;;;25.93;;
12906;SDS011;6521;50.498;8.474;2024-03-08T06:36:28;34.60;;;22.90;;
12906;SDS011;6521;50.498;8.474;2024-03-08T06:38:59;40.37;;;24.23;;
12906;SDS011;6521;50.498;8.474;2024-03-08T06:41:30;35.53;;;23.00;;
12906;SDS011;6521;50.498;8.474;2024-03-08T06:44:03;44.43;;;24.53;;
12906;SDS011;6521;50.498;8.474;2024-03-08T06:46:35;38.43;;;22.83;;
12906;SDS011;6521;50.498;8.474;2024-03-08T06:49:09;37.03;;;22.87;;
12906;SDS011;6521;50.498;8.474;2024-03-08T06:51:41;37.70;;;22.30;;
12906;SDS011;6521;50.498;8.474;2024-03-08T06:54:12;36.40;;;22.90;;
12906;SDS011;6521;50.498;8.474;2024-03-08T06:56:43;39.37;;;23.53;;
12906;SDS011;6521;50.498;8.474;2024-03-08T06:59:14;39.83;;;23.00;;
12906;SDS011;6521;50.498;8.474;2024-03-08T07:01:46;35.77;;;23.20;;
12906;SDS011;6521;50.498;8.474;2024-03-08T07:04:17;37.33;;;23.33;;
12906;SDS011;6521;50.498;8.474;2024-03-08T07:06:50;37.63;;;24.37;;
12906;SDS011;6521;50.498;8.474;2024-03-08T07:09:21;44.70;;;25.33;;
12906;SDS011;6521;50.498;8.474;2024-03-08T07:11:51;40.97;;;24.83;;
12906;SDS011;6521;50.498;8.474;2024-03-08T07:14:25;42.83;;;25.37;;
12906;SDS011;6521;50.498;8.474;2024-03-08T07:16:56;45.27;;;25.20;;
12906;SDS011;6521;50.498;8.474;2024-03-08T07:19:28;50.00;;;25.23;;
12906;SDS011;6521;50.498;8.474;2024-03-08T07:21:59;42.20;;;25.70;;
12906;SDS011;6521;50.498;8.474;2024-03-08T07:24:30;38.50;;;24.67;;
12906;SDS011;6521;50.498;8.474;2024-03-08T07:27:08;39.17;;;24.47;;
12906;SDS011;6521;50.498;8.474;2024-03-08T07:29:42;46.30;;;23.93;;
12906;SDS011;6521;50.498;8.474;2024-03-08T07:32:13;44.13;;;25.70;;
12906;SDS011;6521;50.498;8.474;2024-03-08T07:35:19;45.30;;;24.80;;
12906;SDS011;6521;50.498;8.474;2024-03-08T07:37:50;36.27;;;24.13;;
12906;SDS011;6521;50.498;8.474;2024-03-08T07:40:21;35.97;;;24.70;;
12906;SDS011;6521;50.498;8.474;2024-03-08T07:43:00;44.23;;;24.67;;
12906;SDS011;6521;50.498;8.474;2024-03-08T07:45:33;43.60;;;25.17;;
12906;SDS011;6521;50.498;8.474;2024-03-08T07:48:06;40.60;;;24.67;;
12906;SDS011;6521;50.498;8.474;2024-03-08T07:50:41;37.70;;;24.60;;
12906;SDS011;6521;50.498;8.474;2024-03-08T07:53:12;44.13;;;23.70;;
12906;SDS011;6521;50.498;8.474;2024-03-08T07:55:43;41.23;;;24.77;;
12906;SDS011;6521;50.498;8.474;2024-03-08T07:58:15;43.83;;;24.97;;
12906;SDS011;6521;50.498;8.474;2024-03-08T08:00:47;40.53;;;23.83;;
12906;SDS011;6521;50.498;8.474;2024-03-08T08:03:18;40.30;;;23.57;;
12906;SDS011;6521;50.498;8.474;2024-03-08T08:05:51;37.43;;;23.27;;
12906;SDS011;6521;50.498;8.474;2024-03-08T08:08:22;43.87;;;24.40;;
12906;SDS011;6521;50.498;8.474;2024-03-08T08:10:53;39.77;;;22.83;;
12906;SDS011;6521;50.498;8.474;2024-03-08T08:13:25;34.37;;;23.27;;
12906;SDS011;6521;50.498;8.474;2024-03-08T08:15:58;38.20;;;23.73;;
12906;SDS011;6521;50.498;8.474;2024-03-08T08:18:30;35.33;;;23.90;;
12906;SDS011;6521;50.498;8.474;2024-03-08T08:21:05;38.70;;;24.50;;
12906;SDS011;6521;50.498;8.474;2024-03-08T08:23:38;34.17;;;21.53;;
12906;SDS011;6521;50.498;8.474;2024-03-08T08:26:13;34.57;;;22.20;;
12906;SDS011;6521;50.498;8.474;2024-03-08T08:28:43;37.63;;;24.10;;
12906;SDS011;6521;50.498;8.474;2024-03-08T08:31:17;40.03;;;23.20;;
12906;SDS011;6521;50.498;8.474;2024-03-08T08:33:50;33.40;;;21.90;;
12906;SDS011;6521;50.498;8.474;2024-03-08T08:36:22;36.43;;;22.27;;
12906;SDS011;6521;50.498;8.474;2024-03-08T08:38:55;34.60;;;21.87;;
12906;SDS011;6521;50.498;8.474;2024-03-08T08:41:28;37.10;;;22.60;;
12906;SDS011;6521;50.498;8.474;2024-03-08T08:43:59;35.93;;;22.20;;
12906;SDS011;6521;50.498;8.474;2024-03-08T08:46:31;32.53;;;21.70;;
12906;SDS011;6521;50.498;8.474;2024-03-08T08:49:02;31.10;;;20.47;;
12906;SDS011;6521;50.498;8.474;2024-03-08T08:51:35;33.93;;;22.60;;
12906;SDS011;6521;50.498;8.474;2024-03-08T08:54:07;32.50;;;21.07;;
12906;SDS011;6521;50.498;8.474;2024-03-08T08:56:40;31.87;;;22.13;;
12906;SDS011;6521;50.498;8.474;2024-03-08T08:59:11;30.27;;;21.63;;
12906;SDS011;6521;50.498;8.474;2024-03-08T09:01:49;31.73;;;20.93;;
12906;SDS011;6521;50.498;8.474;2024-03-08T09:04:22;30.73;;;21.17;;
12906;SDS011;6521;50.498;8.474;2024-03-08T09:06:53;31.47;;;21.17;;
12906;SDS011;6521;50.498;8.474;2024-03-08T09:09:25;28.90;;;20.20;;
12906;SDS011;6521;50.498;8.474;2024-03-08T09:11:56;31.97;;;20.50;;
12906;SDS011;6521;50.498;8.474;2024-03-08T09:14:27;27.37;;;18.60;;
12906;SDS011;6521;50.498;8.474;2024-03-08T09:16:58;29.57;;;18.10;;
12906;SDS011;6521;50.498;8.474;2024-03-08T09:19:29;27.53;;;17.93;;
12906;SDS011;6521;50.498;8.474;2024-03-08T09:22:00;29.70;;;18.70;;
12906;SDS011;6521;50.498;8.474;2024-03-08T09:24:32;26.03;;;17.77;;
12906;SDS011;6521;50.498;8.474;2024-03-08T09:27:03;23.20;;;17.50;;
12906;SDS011;6521;50.498;8.474;2024-03-08T09:29:34;25.90;;;18.27;;
12906;SDS011;6521;50.498;8.474;2024-03-08T09:32:05;22.93;;;17.23;;
12906;SDS011;6521;50.498;8.474;2024-03-08T09:34:41;23.70;;;16.90;;
12906;SDS011;6521;50.498;8.474;2024-03-08T09:37:11;22.77;;;15.70;;
12906;SDS011;6521;50.498;8.474;2024-03-08T09:39:43;22.17;;;15.40;;
12906;SDS011;6521;50.498;8.474;2024-03-08T09:42:15;21.33;;;15.90;;
12906;SDS011;6521;50.498;8.474;2024-03-08T09:44:47;22.70;;;15.67;;
12906;SDS011;6521;50.498;8.474;2024-03-08T09:47:18;21.20;;;15.17;;
12906;SDS011;6521;50.498;8.474;2024-03-08T09:49:54;18.23;;;13.90;;
12906;SDS011;6521;50.498;8.474;2024-03-08T09:52:25;20.33;;;15.43;;
12906;SDS011;6521;50.498;8.474;2024-03-08T09:54:57;19.93;;;13.83;;
12906;SDS011;6521;50.498;8.474;2024-03-08T09:57:28;17.30;;;13.83;;
12906;SDS011;6521;50.498;8.474;2024-03-08T09:59:59;16.80;;;13.30;;
12906;SDS011;6521;50.498;8.474;2024-03-08T10:02:32;18.47;;;14.00;;
12906;SDS011;6521;50.498;8.474;2024-03-08T10:05:07;17.30;;;13.50;;
12906;SDS011;6521;50.498;8.474;2024-03-08T10:07:45;19.23;;;13.10;;
12906;SDS011;6521;50.498;8.474;2024-03-08T10:10:16;18.27;;;14.00;;
12906;SDS011;6521;50.498;8.474;2024-03-08T10:12:48;19.10;;;14.50;;
12906;SDS011;6521;50.498;8.474;2024-03-08T10:15:23;18.80;;;14.13;;
12906;SDS011;6521;50.498;8.474;2024-03-08T10:17:57;18.17;;;14.17;;
12906;SDS011;6521;50.498;8.474;2024-03-08T10:20:30;19.80;;;13.47;;
12906;SDS011;6521;50.498;8.474;2024-03-08T10:23:04;22.17;;;14.23;;
12906;SDS011;6521;50.498;8.474;2024-03-08T10:25:35;22.50;;;13.80;;
12906;SDS011;6521;50.498;8.474;2024-03-08T10:28:08;17.87;;;12.90;;
12906;SDS011;6521;50.498;8.474;2024-03-08T10:30:46;17.70;;;12.93;;
12906;SDS011;6521;50.498;8.474;2024-03-08T10:33:19;18.33;;;12.70;;
12906;SDS011;6521;50.498;8.474;2024-03-08T10:35:51;17.15;;;12.40;;
12906;SDS011;6521;50.498;8.474;2024-03-08T10:38:22;16.80;;;11.85;;
12906;SDS011;6521;50.498;8.474;2024-03-08T10:40:54;16.05;;;12.38;;
12906;SDS011;6521;50.498;8.474;2024-03-08T10:43:26;16.20;;;12.43;;
12906;SDS011;6521;50.498;8.474;2024-03-08T10:49:00;16.98;;;11.20;;
12906;SDS011;6521;50.498;8.474;2024-03-08T10:51:34;13.65;;;11.30;;
12906;SDS011;6521;50.498;8.474;2024-03-08T10:54:09;14.38;;;11.35;;
12906;SDS011;6521;50.498;8.474;2024-03-08T10:56:42;14.13;;;10.77;;
12906;SDS011;6521;50.498;8.474;2024-03-08T10:59:13;12.82;;;10.57;;
12906;SDS011;6521;50.498;8.474;2024-03-08T11:01:44;15.63;;;11.00;;
12906;SDS011;6521;50.498;8.474;2024-03-08T11:04:17;13.57;;;10.82;;
12906;SDS011;6521;50.498;8.474;2024-03-08T11:06:53;14.38;;;10.68;;
12906;SDS011;6521;50.498;8.474;2024-03-08T11:09:36;15.43;;;10.85;;
12906;SDS011;6521;50.498;8.474;2024-03-08T11:15:01;18.58;;;11.77;;
12906;SDS011;6521;50.498;8.474;2024-03-08T11:20:10;13.93;;;11.38;;
12906;SDS011;6521;50.498;8.474;2024-03-08T11:23:00;15.10;;;11.80;;
12906;SDS011;6521;50.498;8.474;2024-03-08T11:25:35;16.60;;;10.88;;
12906;SDS011;6521;50.498;8.474;2024-03-08T11:28:18;15.93;;;9.95;;
12906;SDS011;6521;50.498;8.474;2024-03-08T11:33:34;14.43;;;10.93;;
12906;SDS011;6521;50.498;8.474;2024-03-08T11:36:12;15.75;;;10.23;;
12906;SDS011;6521;50.498;8.474;2024-03-08T11:38:55;16.50;;;11.48;;
12906;SDS011;6521;50.498;8.474;2024-03-08T11:41:28;13.10;;;10.10;;
12906;SDS011;6521;50.498;8.474;2024-03-08T11:44:01;13.60;;;11.02;;
12906;SDS011;6521;50.498;8.474;2024-03-08T11:46:37;20.60;;;10.98;;
12906;SDS011;6521;50.498;8.474;2024-03-08T11:49:13;17.33;;;9.98;;
12906;SDS011;6521;50.498;8.474;2024-03-08T11:51:44;13.55;;;9.88;;
12906;SDS011;6521;50.498;8.474;2024-03-08T11:54:16;15.45;;;10.35;;
12906;SDS011;6521;50.498;8.474;2024-03-08T11:56:51;14.90;;;9.55;;
12906;SDS011;6521;50.498;8.474;2024-03-08T11:59:22;13.27;;;9.93;;
12906;SDS011;6521;50.498;8.474;2024-03-08T12:01:58;13.88;;;10.40;;
12906;SDS011;6521;50.498;8.474;2024-03-08T12:04:30;12.35;;;10.57;;
12906;SDS011;6521;50.498;8.474;2024-03-08T12:07:01;13.13;;;10.60;;
12906;SDS011;6521;50.498;8.474;2024-03-08T12:09:33;12.50;;;10.10;;
12906;SDS011;6521;50.498;8.474;2024-03-08T12:12:06;16.23;;;11.20;;
12906;SDS011;6521;50.498;8.474;2024-03-08T12:14:42;17.80;;;10.77;;
12906;SDS011;6521;50.498;8.474;2024-03-08T12:17:15;11.82;;;10.48;;
12906;SDS011;6521;50.498;8.474;2024-03-08T12:19:46;13.10;;;10.80;;
12906;SDS011;6521;50.498;8.474;2024-03-08T12:22:24;14.77;;;10.90;;
12906;SDS011;6521;50.498;8.474;2024-03-08T12:25:05;14.57;;;11.00;;
12906;SDS011;6521;50.498;8.474;2024-03-08T12:27:41;14.52;;;10.98;;
12906;SDS011;6521;50.498;8.474;2024-03-08T12:32:58;13.18;;;11.18;;
12906;SDS011;6521;50.498;8.474;2024-03-08T12:35:30;12.15;;;10.02;;
12906;SDS011;6521;50.498;8.474;2024-03-08T12:38:03;13.77;;;11.45;;
12906;SDS011;6521;50.498;8.474;2024-03-08T12:40:36;12.43;;;10.35;;
12906;SDS011;6521;50.498;8.474;2024-03-08T12:43:11;14.60;;;11.68;;
12906;SDS011;6521;50.498;8.474;2024-03-08T12:45:42;15.07;;;11.65;;
12906;SDS011;6521;50.498;8.474;2024-03-08T12:48:13;14.82;;;11.43;;
12906;SDS011;6521;50.498;8.474;2024-03-08T12:50:46;12.82;;;11.48;;
12906;SDS011;6521;50.498;8.474;2024-03-08T12:53:18;13.82;;;11.18;;
12906;SDS011;6521;50.498;8.474;2024-03-08T12:55:48;12.90;;;10.88;;
12906;SDS011;6521;50.498;8.474;2024-03-08T12:58:19;14.90;;;10.95;;
12906;SDS011;6521;50.498;8.474;2024-03-08T13:00:50;17.83;;;11.77;;
12906;SDS011;6521;50.498;8.474;2024-03-08T13:03:21;13.13;;;11.00;;
12906;SDS011;6521;50.498;8.474;2024-03-08T13:05:53;13.05;;;11.57;;
12906;SDS011;6521;50.498;8.474;2024-03-08T13:08:24;12.82;;;11.32;;
12906;SDS011;6521;50.498;8.474;2024-03-08T13:10:57;14.60;;;11.88;;
12906;SDS011;6521;50.498;8.474;2024-03-08T13:13:29;12.73;;;11.43;;
12906;SDS011;6521;50.498;8.474;2024-03-08T13:16:00;12.93;;;11.52;;
12906;SDS011;6521;50.498;8.474;2024-03-08T13:18:31;13.27;;;11.05;;
12906;SDS011;6521;50.498;8.474;2024-03-08T13:21:02;13.25;;;10.80;;
12906;SDS011;6521;50.498;8.474;2024-03-08T13:23:39;14.63;;;11.02;;
12906;SDS011;6521;50.498;8.474;2024-03-08T13:26:13;12.95;;;10.85;;
12906;SDS011;6521;50.498;8.474;2024-03-08T13:29:05;13.02;;;10.85;;
12906;SDS011;6521;50.498;8.474;2024-03-08T13:31:37;15.93;;;11.38;;
12906;SDS011;6521;50.498;8.474;2024-03-08T13:34:07;13.73;;;12.02;;
12906;SDS011;6521;50.498;8.474;2024-03-08T13:36:40;16.85;;;11.73;;
12906;SDS011;6521;50.498;8.474;2024-03-08T13:39:15;13.85;;;11.80;;
12906;SDS011;6521;50.498;8.474;2024-03-08T13:41:48;14.57;;;11.70;;
12906;SDS011;6521;50.498;8.474;2024-03-08T13:44:19;15.20;;;12.30;;
12906;SDS011;6521;50.498;8.474;2024-03-08T13:46:50;21.52;;;11.95;;
12906;SDS011;6521;50.498;8.474;2024-03-08T13:49:21;15.38;;;12.35;;
12906;SDS011;6521;50.498;8.474;2024-03-08T13:51:52;16.98;;;11.50;;
12906;SDS011;6521;50.498;8.474;2024-03-08T13:54:26;15.35;;;12.18;;
12906;SDS011;6521;50.498;8.474;2024-03-08T13:57:02;15.20;;;11.50;;
12906;SDS011;6521;50.498;8.474;2024-03-08T13:59:34;13.27;;;11.88;;
12906;SDS011;6521;50.498;8.474;2024-03-08T14:02:05;15.70;;;12.65;;
12906;SDS011;6521;50.498;8.474;2024-03-08T14:04:37;14.95;;;12.38;;
12906;SDS011;6521;50.498;8.474;2024-03-08T14:07:08;15.10;;;12.20;;
12906;SDS011;6521;50.498;8.474;2024-03-08T14:09:42;18.67;;;12.30;;
12906;SDS011;6521;50.498;8.474;2024-03-08T14:12:15;14.73;;;12.43;;
12906;SDS011;6521;50.498;8.474;2024-03-08T14:14:46;15.15;;;11.18;;
12906;SDS011;6521;50.498;8.474;2024-03-08T14:17:19;13.18;;;11.52;;
12906;SDS011;6521;50.498;8.474;2024-03-08T14:19:50;15.30;;;12.07;;
12906;SDS011;6521;50.498;8.474;2024-03-08T14:22:22;17.67;;;11.82;;
12906;SDS011;6521;50.498;8.474;2024-03-08T14:24:53;14.95;;;11.88;;
12906;SDS011;6521;50.498;8.474;2024-03-08T14:27:27;17.42;;;11.52;;
12906;SDS011;6521;50.498;8.474;2024-03-08T14:29:59;15.98;;;11.70;;
12906;SDS011;6521;50.498;8.474;2024-03-08T14:32:31;15.18;;;12.13;;
12906;SDS011;6521;50.498;8.474;2024-03-08T14:35:05;15.27;;;12.73;;
12906;SDS011;6521;50.498;8.474;2024-03-08T14:37:36;15.18;;;12.65;;
12906;SDS011;6521;50.498;8.474;2024-03-08T14:40:07;18.92;;;11.95;;
12906;SDS011;6521;50.498;8.474;2024-03-08T14:42:41;15.10;;;12.30;;
12906;SDS011;6521;50.498;8.474;2024-03-08T14:45:13;16.17;;;12.07;;
12906;SDS011;6521;50.498;8.474;2024-03-08T14:47:51;17.10;;;12.00;;
12906;SDS011;6521;50.498;8.474;2024-03-08T14:50:22;16.73;;;13.00;;
12906;SDS011;6521;50.498;8.474;2024-03-08T14:52:54;15.73;;;11.35;;
12906;SDS011;6521;50.498;8.474;2024-03-08T14:55:27;18.15;;;12.52;;
12906;SDS011;6521;50.498;8.474;2024-03-08T14:58:00;15.30;;;12.27;;
12906;SDS011;6521;50.498;8.474;2024-03-08T15:00:31;16.08;;;13.32;;
12906;SDS011;6521;50.498;8.474;2024-03-08T15:03:05;15.48;;;12.68;;
12906;SDS011;6521;50.498;8.474;2024-03-08T15:05:37;18.23;;;13.15;;
12906;SDS011;6521;50.498;8.474;2024-03-08T15:08:12;17.40;;;13.20;;
12906;SDS011;6521;50.498;8.474;2024-03-08T15:10:50;16.10;;;13.40;;
12906;SDS011;6521;50.498;8.474;2024-03-08T15:13:29;16.80;;;12.88;;
12906;SDS011;6521;50.498;8.474;2024-03-08T15:16:15;17.08;;;13.20;;
12906;SDS011;6521;50.498;8.474;2024-03-08T15:18:48;21.17;;;13.20;;
12906;SDS011;6521;50.498;8.474;2024-03-08T15:21:19;18.00;;;13.18;;